createdAt,value
2022-08-14T00:00:54.490Z,17.61
2022-08-14T00:03:29.474Z,17.51
2022-08-14T00:06:00.116Z,17.41
2022-08-14T00:08:43.555Z,17.46
2022-08-14T00:11:12.860Z,17.45
2022-08-14T00:13:40.581Z,17.48
2022-08-14T00:16:44.197Z,17.33
2022-08-14T00:23:34.682Z,17.22
2022-08-14T00:26:06.474Z,17.22
2022-08-14T00:28:37.011Z,17.25
2022-08-14T00:31:06.713Z,17.26
2022-08-14T00:33:51.778Z,17.42
2022-08-14T00:36:36.954Z,17.28
2022-08-14T00:44:35.788Z,17.32
2022-08-14T00:47:08.051Z,17.41
2022-08-14T00:49:43.044Z,17.40
2022-08-14T00:52:13.828Z,17.40
2022-08-14T00:54:42.708Z,17.40
2022-08-14T00:57:10.608Z,17.42
2022-08-14T00:59:39.172Z,17.45
2022-08-14T01:07:07.534Z,17.57
2022-08-14T01:09:37.694Z,17.59
2022-08-14T01:12:07.983Z,17.66
2022-08-14T01:14:35.754Z,17.75
2022-08-14T01:17:03.920Z,17.80
2022-08-14T01:19:49.563Z,17.89
2022-08-14T01:22:18.990Z,17.75
2022-08-14T01:30:01.222Z,17.65
2022-08-14T01:32:37.347Z,17.57
2022-08-14T01:35:19.270Z,17.49
2022-08-14T01:37:57.040Z,17.47
2022-08-14T01:40:33.206Z,17.53
2022-08-14T01:43:08.808Z,17.49
2022-08-14T01:45:41.031Z,17.38
2022-08-14T01:53:19.130Z,17.45
2022-08-14T01:55:49.016Z,17.42
2022-08-14T01:58:20.193Z,17.34
2022-08-14T02:00:58.430Z,17.32
2022-08-14T02:03:30.155Z,17.38
2022-08-14T02:05:59.227Z,17.35
2022-08-14T02:08:34.784Z,17.24
2022-08-14T02:16:22.584Z,17.47
2022-08-14T02:18:50.789Z,17.42
2022-08-14T02:21:23.164Z,17.39
2022-08-14T02:23:53.885Z,17.51
2022-08-14T02:26:29.837Z,17.64
2022-08-14T02:29:03.545Z,17.64
2022-08-14T02:34:22.427Z,17.85
2022-08-14T02:37:04.411Z,17.83
2022-08-14T02:39:37.258Z,17.92
2022-08-14T02:42:07.392Z,17.82
2022-08-14T02:44:48.791Z,17.64
2022-08-14T02:47:19.273Z,17.62
2022-08-14T02:49:50.702Z,17.44
2022-08-14T02:57:39.816Z,17.13
2022-08-14T03:00:12.568Z,17.21
2022-08-14T03:02:56.819Z,17.08
2022-08-14T03:05:29.903Z,17.07
2022-08-14T03:08:09.125Z,17.05
2022-08-14T03:10:41.663Z,17.03
2022-08-14T03:15:47.403Z,16.85
2022-08-14T03:18:18.598Z,16.87
2022-08-14T03:20:46.416Z,16.83
2022-08-14T03:23:14.039Z,16.78
2022-08-14T03:25:44.926Z,16.78
2022-08-14T03:28:14.880Z,16.81
2022-08-14T03:30:59.889Z,16.94
2022-08-14T03:37:51.008Z,17.03
2022-08-14T03:39:12.573Z,17.08
2022-08-14T03:41:43.171Z,17.25
2022-08-14T03:45:20.164Z,17.17
2022-08-14T03:46:58.372Z,17.34
2022-08-14T03:49:29.207Z,17.29
2022-08-14T03:52:00.819Z,17.28
2022-08-14T03:59:39.925Z,17.58
2022-08-14T04:02:31.876Z,17.68
2022-08-14T04:04:54.902Z,17.80
2022-08-14T04:07:22.424Z,17.81
2022-08-14T04:09:50.086Z,17.82
2022-08-14T04:12:26.362Z,17.83
2022-08-14T04:14:55.053Z,17.81
2022-08-14T04:22:21.982Z,17.84
2022-08-14T04:24:50.126Z,17.84
2022-08-14T04:27:18.623Z,17.96
2022-08-14T04:29:46.266Z,18.00
2022-08-14T04:32:57.795Z,17.95
2022-08-14T04:35:07.689Z,17.99
2022-08-14T04:37:57.685Z,18.06
2022-08-14T04:45:29.766Z,18.01
2022-08-14T04:48:13.648Z,17.96
2022-08-14T04:51:02.043Z,17.90
2022-08-14T04:53:35.418Z,17.81
2022-08-14T04:56:30.174Z,17.73
2022-08-14T04:58:57.120Z,17.69
2022-08-14T05:06:37.394Z,17.64
2022-08-14T05:09:07.300Z,17.60
2022-08-14T05:11:39.282Z,17.65
2022-08-14T05:14:16.972Z,17.69
2022-08-14T05:17:01.659Z,17.67
2022-08-14T05:19:31.995Z,17.70
2022-08-14T05:24:40.165Z,17.65
2022-08-14T05:27:09.147Z,17.68
2022-08-14T05:29:36.670Z,17.75
2022-08-14T05:32:06.978Z,17.84
2022-08-14T05:34:34.568Z,17.93
2022-08-14T05:37:03.472Z,18.04
2022-08-14T05:39:31.829Z,18.15
2022-08-14T05:47:04.298Z,18.31
2022-08-14T05:49:33.222Z,18.33
2022-08-14T05:52:02.515Z,18.35
2022-08-14T05:54:35.883Z,18.47
2022-08-14T05:57:04.882Z,18.48
2022-08-14T05:59:39.355Z,18.63
2022-08-14T06:04:51.170Z,18.69
2022-08-14T06:07:18.805Z,18.76
2022-08-14T06:09:52.156Z,18.72
2022-08-14T06:12:31.619Z,18.79
2022-08-14T06:15:10.037Z,18.75
2022-08-14T06:17:46.306Z,18.72
2022-08-14T06:22:52.255Z,18.74
2022-08-14T06:25:20.408Z,18.68
2022-08-14T06:27:49.923Z,18.62
2022-08-14T06:30:19.627Z,18.63
2022-08-14T06:32:48.762Z,18.58
2022-08-14T06:35:22.468Z,18.38
2022-08-14T06:37:53.606Z,18.34
2022-08-14T06:44:47.984Z,18.20
2022-08-14T06:47:15.551Z,18.16
2022-08-14T06:49:48.526Z,18.16
2022-08-14T06:52:23.763Z,18.17
2022-08-14T06:54:52.644Z,18.17
2022-08-14T06:57:21.552Z,18.23
2022-08-14T06:59:50.669Z,18.34
2022-08-14T07:05:22.908Z,18.54
2022-08-14T07:07:51.964Z,18.62
2022-08-14T07:10:21.779Z,18.68
2022-08-14T07:12:56.389Z,18.69
2022-08-14T07:15:33.664Z,18.48
2022-08-14T07:18:03.180Z,18.57
2022-08-14T07:25:35.096Z,18.51
2022-08-14T07:28:21.257Z,18.50
2022-08-14T07:30:51.000Z,18.49
2022-08-14T07:33:24.915Z,18.59
2022-08-14T07:36:01.053Z,18.55
2022-08-14T07:38:33.590Z,18.50
2022-08-14T07:43:44.006Z,18.33
2022-08-14T07:46:21.152Z,18.22
2022-08-14T07:48:56.760Z,18.13
2022-08-14T07:51:24.450Z,18.18
2022-08-14T07:53:56.838Z,18.20
2022-08-14T07:56:48.282Z,18.29
2022-08-14T07:59:20.600Z,18.26
2022-08-14T08:06:23.402Z,18.27
2022-08-14T08:09:01.014Z,18.24
2022-08-14T08:11:34.897Z,18.31
2022-08-14T08:14:06.981Z,18.42
2022-08-14T08:16:45.143Z,18.48
2022-08-14T08:19:18.355Z,18.75
2022-08-14T08:24:41.119Z,19.44
2022-08-14T08:27:16.679Z,19.69
2022-08-14T08:29:50.751Z,19.99
2022-08-14T08:32:19.478Z,19.90
2022-08-14T08:34:47.935Z,19.76
2022-08-14T08:37:16.948Z,19.82
2022-08-14T08:40:02.951Z,19.88
2022-08-14T08:47:40.400Z,19.51
2022-08-14T08:50:23.033Z,19.56
2022-08-14T08:53:02.106Z,19.62
2022-08-14T08:55:34.089Z,19.73
2022-08-14T08:58:05.383Z,19.80
2022-08-14T09:00:41.763Z,19.91
2022-08-14T09:08:30.979Z,20.30
2022-08-14T09:11:01.969Z,20.40
2022-08-14T09:13:30.932Z,20.55
2022-08-14T09:16:01.487Z,20.60
2022-08-14T09:18:47.154Z,20.73
2022-08-14T09:21:16.136Z,20.93
2022-08-14T09:26:28.788Z,21.03
2022-08-14T09:28:59.812Z,21.19
2022-08-14T09:31:43.090Z,21.14
2022-08-14T09:34:29.641Z,21.14
2022-08-14T09:37:17.261Z,21.19
2022-08-14T09:39:57.656Z,21.45
2022-08-14T09:45:22.256Z,22.60
2022-08-14T09:47:52.523Z,22.97
2022-08-14T09:50:26.864Z,23.18
2022-08-14T09:52:58.067Z,23.32
2022-08-14T09:55:28.076Z,23.25
2022-08-14T09:58:09.610Z,23.21
2022-08-14T10:00:50.345Z,23.23
2022-08-14T10:06:17.157Z,23.52
2022-08-14T10:08:50.911Z,23.60
2022-08-14T10:11:23.614Z,23.53
2022-08-14T10:13:54.069Z,23.74
2022-08-14T10:16:32.067Z,24.21
2022-08-14T10:19:07.229Z,24.64
2022-08-14T10:21:38.774Z,25.22
2022-08-14T10:26:58.743Z,24.98
2022-08-14T10:29:33.278Z,24.96
2022-08-14T10:32:02.843Z,24.58
2022-08-14T10:34:47.200Z,24.20
2022-08-14T10:37:23.013Z,23.75
2022-08-14T10:40:05.286Z,23.86
2022-08-14T10:45:34.048Z,24.94
2022-08-14T10:48:24.123Z,25.39
2022-08-14T10:51:04.855Z,25.65
2022-08-14T10:53:39.858Z,26.08
2022-08-14T10:56:22.025Z,26.46
2022-08-14T10:59:01.964Z,26.56
2022-08-14T11:04:30.646Z,26.08
2022-08-14T11:06:59.343Z,25.92
2022-08-14T11:09:32.099Z,25.93
2022-08-14T11:12:34.846Z,26.29
2022-08-14T11:15:01.820Z,26.87
2022-08-14T11:17:32.888Z,26.86
2022-08-14T11:25:44.306Z,27.60
2022-08-14T11:28:47.380Z,27.63
2022-08-14T11:31:14.022Z,27.72
2022-08-14T11:33:42.049Z,27.90
2022-08-14T11:36:18.434Z,28.15
2022-08-14T11:38:46.947Z,28.21
2022-08-14T11:41:17.696Z,27.88
2022-08-14T11:46:37.712Z,28.29
2022-08-14T11:49:06.574Z,27.97
2022-08-14T11:51:54.148Z,27.47
2022-08-14T11:54:34.725Z,27.55
2022-08-14T11:57:04.433Z,27.32
2022-08-14T11:59:33.616Z,27.17
2022-08-14T12:06:29.267Z,26.99
2022-08-14T12:09:00.683Z,27.20
2022-08-14T12:11:43.579Z,27.81
2022-08-14T12:14:13.432Z,27.88
2022-08-14T12:17:00.784Z,27.69
2022-08-14T12:19:33.640Z,27.76
2022-08-14T12:27:52.745Z,28.63
2022-08-14T12:30:29.135Z,29.07
2022-08-14T12:33:04.966Z,28.62
2022-08-14T12:35:39.726Z,27.66
2022-08-14T12:38:08.177Z,26.84
2022-08-14T12:40:46.559Z,26.59
2022-08-14T12:48:21.423Z,25.51
2022-08-14T12:50:59.102Z,25.46
2022-08-14T12:53:38.463Z,24.87
2022-08-14T12:56:21.490Z,24.59
2022-08-14T12:58:56.722Z,24.55
2022-08-14T13:01:26.776Z,24.31
2022-08-14T13:09:36.344Z,24.05
2022-08-14T13:12:32.556Z,23.99
2022-08-14T13:14:57.871Z,24.05
2022-08-14T13:17:26.948Z,24.08
2022-08-14T13:19:57.340Z,24.22
2022-08-14T13:22:32.083Z,24.47
2022-08-14T13:30:23.332Z,24.42
2022-08-14T13:32:52.593Z,24.36
2022-08-14T13:35:20.900Z,24.29
2022-08-14T13:37:52.481Z,24.69
2022-08-14T13:40:25.995Z,26.36
2022-08-14T13:42:56.804Z,27.69
2022-08-14T13:48:04.661Z,28.91
2022-08-14T13:50:34.379Z,29.66
2022-08-14T13:53:03.797Z,30.15
2022-08-14T13:55:32.424Z,30.58
2022-08-14T13:58:03.426Z,30.63
2022-08-14T14:00:35.266Z,31.51
2022-08-14T14:03:05.663Z,32.09
2022-08-14T14:10:35.803Z,32.11
2022-08-14T14:13:07.257Z,32.00
2022-08-14T14:15:48.559Z,30.85
2022-08-14T14:18:34.407Z,30.08
2022-08-14T14:21:02.896Z,29.34
2022-08-14T14:23:30.838Z,28.95
2022-08-14T14:32:32.062Z,27.71
2022-08-14T14:35:03.640Z,27.34
2022-08-14T14:37:31.599Z,27.08
2022-08-14T14:40:54.104Z,26.85
2022-08-14T14:42:51.828Z,26.66
2022-08-14T14:45:23.496Z,26.66
2022-08-14T14:47:59.119Z,26.52
2022-08-14T14:54:50.911Z,26.12
2022-08-14T14:57:19.836Z,26.01
2022-08-14T14:59:47.783Z,25.91
2022-08-14T15:02:33.191Z,25.65
2022-08-14T15:05:01.037Z,25.49
2022-08-14T15:07:29.870Z,25.34
2022-08-14T15:09:59.051Z,25.35
2022-08-14T15:16:46.667Z,25.40
2022-08-14T15:19:14.794Z,25.49
2022-08-14T15:21:42.778Z,25.16
2022-08-14T15:24:10.879Z,25.01
2022-08-14T15:26:42.478Z,25.05
2022-08-14T15:29:14.227Z,24.84
2022-08-14T15:31:43.567Z,24.79
2022-08-14T15:39:13.590Z,24.55
2022-08-14T15:41:42.856Z,24.39
2022-08-14T15:44:18.881Z,24.26
2022-08-14T15:46:53.424Z,24.01
2022-08-14T15:49:21.055Z,23.95
2022-08-14T15:51:50.999Z,23.75
2022-08-14T15:54:22.068Z,23.48
2022-08-14T16:01:55.169Z,22.54
2022-08-14T16:04:23.808Z,22.51
2022-08-14T16:06:54.809Z,22.49
2022-08-14T16:09:23.401Z,22.40
2022-08-14T16:11:53.594Z,22.51
2022-08-14T16:14:24.237Z,22.47
2022-08-14T16:17:00.330Z,22.38
2022-08-14T16:23:10.072Z,21.98
2022-08-14T16:25:03.949Z,21.79
2022-08-14T16:27:37.207Z,21.86
2022-08-14T16:30:10.963Z,21.74
2022-08-14T16:32:54.879Z,21.71
2022-08-14T16:35:26.507Z,21.65
2022-08-14T16:43:16.144Z,21.69
2022-08-14T16:45:44.303Z,21.73
2022-08-14T16:48:55.395Z,21.77
2022-08-14T16:51:01.167Z,21.82
2022-08-14T16:53:36.369Z,21.90
2022-08-14T16:56:22.886Z,21.87
2022-08-14T17:04:53.564Z,21.68
2022-08-14T17:07:21.809Z,21.71
2022-08-14T17:09:52.734Z,21.70
2022-08-14T17:12:29.054Z,21.60
2022-08-14T17:15:09.833Z,21.49
2022-08-14T17:17:50.014Z,21.52
2022-08-14T17:26:01.196Z,21.43
2022-08-14T17:28:51.944Z,21.43
2022-08-14T17:31:17.728Z,21.31
2022-08-14T17:33:52.408Z,21.29
2022-08-14T17:36:22.989Z,21.18
2022-08-14T17:39:06.481Z,21.15
2022-08-14T17:45:44.955Z,20.99
2022-08-14T17:49:15.868Z,20.92
2022-08-14T17:51:23.660Z,20.91
2022-08-14T17:54:02.668Z,20.89
2022-08-14T17:56:33.186Z,20.90
2022-08-14T17:59:05.039Z,20.90
2022-08-14T18:06:38.176Z,20.60
2022-08-14T18:09:24.846Z,20.61
2022-08-14T18:11:54.376Z,20.55
2022-08-14T18:14:33.211Z,20.48
2022-08-14T18:17:11.611Z,20.42
2022-08-14T18:19:41.490Z,20.34
2022-08-14T18:27:16.046Z,20.19
2022-08-14T18:29:54.850Z,20.17
2022-08-14T18:32:47.191Z,20.17
2022-08-14T18:35:17.088Z,20.17
2022-08-14T18:37:56.059Z,20.10
2022-08-14T18:40:35.137Z,20.06
2022-08-14T18:48:33.254Z,19.95
2022-08-14T18:51:26.378Z,19.91
2022-08-14T18:54:29.926Z,19.86
2022-08-14T18:57:03.503Z,19.82
2022-08-14T18:59:36.254Z,19.92
2022-08-14T19:02:43.458Z,19.94
2022-08-14T19:09:57.929Z,19.73
2022-08-14T19:13:04.938Z,19.66
2022-08-14T19:15:37.137Z,19.64
2022-08-14T19:18:26.660Z,19.58
2022-08-14T19:20:58.375Z,19.54
2022-08-14T19:23:42.059Z,19.48
2022-08-14T19:31:42.543Z,19.29
2022-08-14T19:34:29.617Z,19.17
2022-08-14T19:37:05.712Z,19.22
2022-08-14T19:39:48.919Z,19.19
2022-08-14T19:42:28.590Z,19.29
2022-08-14T19:44:58.380Z,19.32
2022-08-14T19:50:31.022Z,19.22
2022-08-14T19:53:11.040Z,19.20
2022-08-14T19:55:45.549Z,19.26
2022-08-14T19:58:13.627Z,19.22
2022-08-14T20:00:51.840Z,19.16
2022-08-14T20:03:23.428Z,19.09
2022-08-14T20:11:58.497Z,19.09
2022-08-14T20:14:20.654Z,19.06
2022-08-14T20:16:54.294Z,19.06
2022-08-14T20:19:24.637Z,19.06
2022-08-14T20:22:35.635Z,19.08
2022-08-14T20:24:47.133Z,19.05
2022-08-14T20:32:22.436Z,18.84
2022-08-14T20:34:54.674Z,18.79
2022-08-14T20:37:22.825Z,18.82
2022-08-14T20:39:54.820Z,18.89
2022-08-14T20:42:43.865Z,18.88
2022-08-14T20:45:21.397Z,18.76
2022-08-14T20:52:18.992Z,18.59
2022-08-14T20:54:51.009Z,18.42
2022-08-14T20:57:20.039Z,18.51
2022-08-14T20:59:51.780Z,18.62
2022-08-14T21:02:38.408Z,18.60
2022-08-14T21:05:17.202Z,18.66
2022-08-14T21:10:34.055Z,18.57
2022-08-14T21:13:26.704Z,18.41
2022-08-14T21:15:58.002Z,18.46
2022-08-14T21:18:28.640Z,18.49
2022-08-14T21:20:58.443Z,18.52
2022-08-14T21:23:32.591Z,18.53
2022-08-14T21:28:55.914Z,18.45
2022-08-14T21:31:23.419Z,18.48
2022-08-14T21:33:56.317Z,18.60
2022-08-14T21:36:24.784Z,18.45
2022-08-14T21:38:58.864Z,18.48
2022-08-14T21:41:41.842Z,18.31
2022-08-14T21:47:07.513Z,18.17
2022-08-14T21:49:38.324Z,18.17
2022-08-14T21:52:50.951Z,18.28
2022-08-14T21:54:59.796Z,18.47
2022-08-14T21:57:56.068Z,18.47
2022-08-14T22:00:35.870Z,18.47
2022-08-14T22:08:14.045Z,18.30
2022-08-14T22:10:46.339Z,18.46
2022-08-14T22:13:14.788Z,18.30
2022-08-14T22:15:50.012Z,18.18
2022-08-14T22:18:20.490Z,18.05
2022-08-14T22:20:53.637Z,18.09
2022-08-14T22:23:23.630Z,18.01
2022-08-14T22:30:54.635Z,18.11
2022-08-14T22:33:26.036Z,18.21
2022-08-14T22:35:56.300Z,17.97
2022-08-14T22:38:37.740Z,17.87
2022-08-14T22:41:25.582Z,17.70
2022-08-14T22:43:59.270Z,17.69
2022-08-14T22:46:28.440Z,17.72
2022-08-14T22:53:32.112Z,17.69
2022-08-14T22:55:59.603Z,17.78
2022-08-14T22:58:30.406Z,17.67
2022-08-14T23:01:00.539Z,17.73
2022-08-14T23:03:28.922Z,17.72
2022-08-14T23:05:57.239Z,17.71
2022-08-14T23:08:56.797Z,17.69
2022-08-14T23:16:20.568Z,17.64
2022-08-14T23:18:54.100Z,17.57
2022-08-14T23:21:24.651Z,17.64
2022-08-14T23:23:54.962Z,17.62
2022-08-14T23:26:49.301Z,17.56
2022-08-14T23:29:12.475Z,17.58
2022-08-14T23:31:41.154Z,17.51
2022-08-14T23:39:19.333Z,17.67
2022-08-14T23:41:52.636Z,17.72
2022-08-14T23:44:22.517Z,17.64
2022-08-14T23:46:52.679Z,17.55
2022-08-14T23:49:24.355Z,17.58
2022-08-14T23:51:59.698Z,17.57
2022-08-14T23:54:48.694Z,17.43
2022-08-14T23:59:56.208Z,17.45
